sensor_id;sensor_type;location;lat;lon;timestamp;temperature;humidity
14101;DHT22;7127;49.372;8.166;2022-07-17T00:02:07;22.90;32.60
14101;DHT22;7127;49.372;8.166;2022-07-17T00:04:34;22.80;32.50
14101;DHT22;7127;49.372;8.166;2022-07-17T00:07:01;22.80;32.60
14101;DHT22;7127;49.372;8.166;2022-07-17T00:09:29;22.80;32.50
14101;DHT22;7127;49.372;8.166;2022-07-17T00:11:57;22.80;32.60
14101;DHT22;7127;49.372;8.166;2022-07-17T00:14:24;22.70;32.70
14101;DHT22;7127;49.372;8.166;2022-07-17T00:16:52;22.70;32.70
14101;DHT22;7127;49.372;8.166;2022-07-17T00:19:19;22.70;32.70
14101;DHT22;7127;49.372;8.166;2022-07-17T00:21:47;22.70;32.70
14101;DHT22;7127;49.372;8.166;2022-07-17T00:24:14;22.60;32.80
14101;DHT22;7127;49.372;8.166;2022-07-17T00:26:47;22.60;32.80
14101;DHT22;7127;49.372;8.166;2022-07-17T00:29:14;22.60;32.80
14101;DHT22;7127;49.372;8.166;2022-07-17T00:31:42;22.50;32.80
14101;DHT22;7127;49.372;8.166;2022-07-17T00:34:09;22.50;33.00
14101;DHT22;7127;49.372;8.166;2022-07-17T00:36:36;22.50;33.00
14101;DHT22;7127;49.372;8.166;2022-07-17T00:39:04;22.50;33.00
14101;DHT22;7127;49.372;8.166;2022-07-17T00:41:31;22.40;33.00
14101;DHT22;7127;49.372;8.166;2022-07-17T00:44:05;22.40;33.00
14101;DHT22;7127;49.372;8.166;2022-07-17T00:46:32;22.40;33.10
14101;DHT22;7127;49.372;8.166;2022-07-17T00:48:59;22.40;33.00
14101;DHT22;7127;49.372;8.166;2022-07-17T00:51:27;22.30;33.00
14101;DHT22;7127;49.372;8.166;2022-07-17T00:53:55;22.30;33.00
14101;DHT22;7127;49.372;8.166;2022-07-17T00:56:22;22.30;33.00
14101;DHT22;7127;49.372;8.166;2022-07-17T00:58:50;22.30;33.10
14101;DHT22;7127;49.372;8.166;2022-07-17T01:01:19;22.20;33.00
14101;DHT22;7127;49.372;8.166;2022-07-17T01:03:46;22.20;33.10
14101;DHT22;7127;49.372;8.166;2022-07-17T01:06:13;22.20;33.20
14101;DHT22;7127;49.372;8.166;2022-07-17T01:08:41;22.20;33.50
14101;DHT22;7127;49.372;8.166;2022-07-17T01:11:08;22.10;33.20
14101;DHT22;7127;49.372;8.166;2022-07-17T01:13:36;22.10;33.20
14101;DHT22;7127;49.372;8.166;2022-07-17T01:16:04;22.00;33.40
14101;DHT22;7127;49.372;8.166;2022-07-17T01:18:32;22.00;33.40
14101;DHT22;7127;49.372;8.166;2022-07-17T01:21:04;21.90;33.30
14101;DHT22;7127;49.372;8.166;2022-07-17T01:23:32;21.90;33.40
14101;DHT22;7127;49.372;8.166;2022-07-17T01:25:59;21.90;33.30
14101;DHT22;7127;49.372;8.166;2022-07-17T01:28:26;21.90;33.60
14101;DHT22;7127;49.372;8.166;2022-07-17T01:30:56;21.80;33.70
14101;DHT22;7127;49.372;8.166;2022-07-17T01:33:23;21.80;33.70
14101;DHT22;7127;49.372;8.166;2022-07-17T01:35:50;21.80;33.70
14101;DHT22;7127;49.372;8.166;2022-07-17T01:38:19;21.80;33.60
14101;DHT22;7127;49.372;8.166;2022-07-17T01:40:46;21.80;33.70
14101;DHT22;7127;49.372;8.166;2022-07-17T01:43:13;21.80;33.60
14101;DHT22;7127;49.372;8.166;2022-07-17T01:45:41;21.70;33.70
14101;DHT22;7127;49.372;8.166;2022-07-17T01:48:08;21.70;33.60
14101;DHT22;7127;49.372;8.166;2022-07-17T01:50:35;21.70;33.70
14101;DHT22;7127;49.372;8.166;2022-07-17T01:53:02;21.70;33.70
14101;DHT22;7127;49.372;8.166;2022-07-17T01:55:31;21.70;33.80
14101;DHT22;7127;49.372;8.166;2022-07-17T01:57:59;21.70;33.90
14101;DHT22;7127;49.372;8.166;2022-07-17T02:00:26;21.60;33.90
14101;DHT22;7127;49.372;8.166;2022-07-17T02:02:53;21.60;33.90
14101;DHT22;7127;49.372;8.166;2022-07-17T02:05:20;21.60;33.90
14101;DHT22;7127;49.372;8.166;2022-07-17T02:07:47;21.60;34.00
14101;DHT22;7127;49.372;8.166;2022-07-17T02:10:15;21.60;33.90
14101;DHT22;7127;49.372;8.166;2022-07-17T02:12:44;21.50;33.90
14101;DHT22;7127;49.372;8.166;2022-07-17T02:15:12;21.60;34.00
14101;DHT22;7127;49.372;8.166;2022-07-17T02:17:40;21.60;34.00
14101;DHT22;7127;49.372;8.166;2022-07-17T02:20:09;21.50;33.90
14101;DHT22;7127;49.372;8.166;2022-07-17T02:22:37;21.50;34.10
14101;DHT22;7127;49.372;8.166;2022-07-17T02:25:06;21.50;33.90
14101;DHT22;7127;49.372;8.166;2022-07-17T02:27:34;21.50;33.90
14101;DHT22;7127;49.372;8.166;2022-07-17T02:30:03;21.50;33.90
14101;DHT22;7127;49.372;8.166;2022-07-17T02:32:31;21.50;33.90
14101;DHT22;7127;49.372;8.166;2022-07-17T02:34:58;21.50;33.90
14101;DHT22;7127;49.372;8.166;2022-07-17T02:37:25;21.50;34.30
14101;DHT22;7127;49.372;8.166;2022-07-17T02:39:52;21.50;33.90
14101;DHT22;7127;49.372;8.166;2022-07-17T02:42:20;21.50;34.10
14101;DHT22;7127;49.372;8.166;2022-07-17T02:44:48;21.50;34.10
14101;DHT22;7127;49.372;8.166;2022-07-17T02:47:22;21.40;34.00
14101;DHT22;7127;49.372;8.166;2022-07-17T02:49:50;21.50;34.40
14101;DHT22;7127;49.372;8.166;2022-07-17T02:52:17;21.40;34.20
14101;DHT22;7127;49.372;8.166;2022-07-17T02:54:45;21.40;34.30
14101;DHT22;7127;49.372;8.166;2022-07-17T02:57:12;21.30;34.40
14101;DHT22;7127;49.372;8.166;2022-07-17T02:59:40;21.30;34.40
14101;DHT22;7127;49.372;8.166;2022-07-17T03:02:07;21.30;34.40
14101;DHT22;7127;49.372;8.166;2022-07-17T03:04:36;21.20;34.40
14101;DHT22;7127;49.372;8.166;2022-07-17T03:07:04;21.20;34.40
14101;DHT22;7127;49.372;8.166;2022-07-17T03:09:31;21.20;34.50
14101;DHT22;7127;49.372;8.166;2022-07-17T03:11:58;21.10;34.60
14101;DHT22;7127;49.372;8.166;2022-07-17T03:14:25;21.10;34.70
14101;DHT22;7127;49.372;8.166;2022-07-17T03:16:53;21.00;34.70
14101;DHT22;7127;49.372;8.166;2022-07-17T03:19:20;21.00;34.70
14101;DHT22;7127;49.372;8.166;2022-07-17T03:21:48;21.00;34.80
14101;DHT22;7127;49.372;8.166;2022-07-17T03:24:15;21.00;35.00
14101;DHT22;7127;49.372;8.166;2022-07-17T03:26:43;20.90;34.90
14101;DHT22;7127;49.372;8.166;2022-07-17T03:29:10;20.90;35.00
14101;DHT22;7127;49.372;8.166;2022-07-17T03:31:37;20.80;35.00
14101;DHT22;7127;49.372;8.166;2022-07-17T03:34:04;20.80;35.00
14101;DHT22;7127;49.372;8.166;2022-07-17T03:36:31;20.80;35.10
14101;DHT22;7127;49.372;8.166;2022-07-17T03:39:00;20.80;35.30
14101;DHT22;7127;49.372;8.166;2022-07-17T03:41:27;20.70;35.20
14101;DHT22;7127;49.372;8.166;2022-07-17T03:43:54;20.70;35.30
14101;DHT22;7127;49.372;8.166;2022-07-17T03:46:21;20.70;35.30
14101;DHT22;7127;49.372;8.166;2022-07-17T03:48:49;20.70;35.40
14101;DHT22;7127;49.372;8.166;2022-07-17T03:51:16;20.60;35.40
14101;DHT22;7127;49.372;8.166;2022-07-17T03:53:43;20.60;35.50
14101;DHT22;7127;49.372;8.166;2022-07-17T03:56:12;20.60;35.50
14101;DHT22;7127;49.372;8.166;2022-07-17T03:58:40;20.50;35.50
14101;DHT22;7127;49.372;8.166;2022-07-17T04:01:07;20.50;35.60
14101;DHT22;7127;49.372;8.166;2022-07-17T04:03:34;20.40;35.50
14101;DHT22;7127;49.372;8.166;2022-07-17T04:06:01;20.40;35.60
14101;DHT22;7127;49.372;8.166;2022-07-17T04:08:29;20.50;35.70
14101;DHT22;7127;49.372;8.166;2022-07-17T04:10:56;20.40;35.70
14101;DHT22;7127;49.372;8.166;2022-07-17T04:13:25;20.40;35.80
14101;DHT22;7127;49.372;8.166;2022-07-17T04:15:52;20.40;35.90
14101;DHT22;7127;49.372;8.166;2022-07-17T04:18:22;20.40;36.50
14101;DHT22;7127;49.372;8.166;2022-07-17T04:20:50;20.30;35.90
14101;DHT22;7127;49.372;8.166;2022-07-17T04:23:18;20.30;35.90
14101;DHT22;7127;49.372;8.166;2022-07-17T04:25:45;20.30;36.00
14101;DHT22;7127;49.372;8.166;2022-07-17T04:28:13;20.30;36.10
14101;DHT22;7127;49.372;8.166;2022-07-17T04:30:42;20.30;36.10
14101;DHT22;7127;49.372;8.166;2022-07-17T04:33:09;20.30;36.20
14101;DHT22;7127;49.372;8.166;2022-07-17T04:35:37;20.30;36.30
14101;DHT22;7127;49.372;8.166;2022-07-17T04:38:05;20.30;36.30
14101;DHT22;7127;49.372;8.166;2022-07-17T04:40:34;20.30;36.40
14101;DHT22;7127;49.372;8.166;2022-07-17T04:43:02;20.30;36.50
14101;DHT22;7127;49.372;8.166;2022-07-17T04:45:30;20.30;36.60
14101;DHT22;7127;49.372;8.166;2022-07-17T04:47:59;20.30;36.50
14101;DHT22;7127;49.372;8.166;2022-07-17T04:50:28;20.30;36.60
14101;DHT22;7127;49.372;8.166;2022-07-17T04:53:09;20.30;36.60
14101;DHT22;7127;49.372;8.166;2022-07-17T04:55:40;20.40;36.70
14101;DHT22;7127;49.372;8.166;2022-07-17T04:58:12;20.40;36.80
14101;DHT22;7127;49.372;8.166;2022-07-17T05:00:39;20.40;36.80
14101;DHT22;7127;49.372;8.166;2022-07-17T05:03:08;20.40;36.90
14101;DHT22;7127;49.372;8.166;2022-07-17T05:05:35;20.40;36.90
14101;DHT22;7127;49.372;8.166;2022-07-17T05:08:05;20.40;36.90
14101;DHT22;7127;49.372;8.166;2022-07-17T05:10:33;20.50;36.90
14101;DHT22;7127;49.372;8.166;2022-07-17T05:13:00;20.50;37.10
14101;DHT22;7127;49.372;8.166;2022-07-17T05:15:27;20.50;37.00
14101;DHT22;7127;49.372;8.166;2022-07-17T05:17:56;20.60;37.10
14101;DHT22;7127;49.372;8.166;2022-07-17T05:20:26;20.60;37.10
14101;DHT22;7127;49.372;8.166;2022-07-17T05:22:53;20.60;37.00
14101;DHT22;7127;49.372;8.166;2022-07-17T05:25:22;20.70;37.10
14101;DHT22;7127;49.372;8.166;2022-07-17T05:27:53;20.60;37.00
14101;DHT22;7127;49.372;8.166;2022-07-17T05:30:21;20.70;37.10
14101;DHT22;7127;49.372;8.166;2022-07-17T05:32:48;20.80;37.20
14101;DHT22;7127;49.372;8.166;2022-07-17T05:35:15;20.80;37.20
14101;DHT22;7127;49.372;8.166;2022-07-17T05:37:44;20.90;37.30
14101;DHT22;7127;49.372;8.166;2022-07-17T05:40:13;20.80;37.20
14101;DHT22;7127;49.372;8.166;2022-07-17T05:42:43;20.90;37.30
14101;DHT22;7127;49.372;8.166;2022-07-17T05:45:28;21.10;37.40
14101;DHT22;7127;49.372;8.166;2022-07-17T05:48:17;21.20;38.10
14101;DHT22;7127;49.372;8.166;2022-07-17T05:50:54;21.20;37.30
14101;DHT22;7127;49.372;8.166;2022-07-17T05:53:40;21.40;37.30
14101;DHT22;7127;49.372;8.166;2022-07-17T05:56:10;21.40;37.20
14101;DHT22;7127;49.372;8.166;2022-07-17T05:58:38;21.50;37.20
14101;DHT22;7127;49.372;8.166;2022-07-17T06:01:23;21.60;37.20
14101;DHT22;7127;49.372;8.166;2022-07-17T06:04:06;21.70;37.20
14101;DHT22;7127;49.372;8.166;2022-07-17T06:06:47;21.80;37.10
14101;DHT22;7127;49.372;8.166;2022-07-17T06:09:24;21.90;37.00
14101;DHT22;7127;49.372;8.166;2022-07-17T06:11:51;21.90;37.00
14101;DHT22;7127;49.372;8.166;2022-07-17T06:14:19;22.00;36.90
14101;DHT22;7127;49.372;8.166;2022-07-17T06:16:47;22.10;36.90
14101;DHT22;7127;49.372;8.166;2022-07-17T06:19:14;22.20;36.90
14101;DHT22;7127;49.372;8.166;2022-07-17T06:21:42;22.20;36.80
14101;DHT22;7127;49.372;8.166;2022-07-17T06:24:13;22.30;36.70
14101;DHT22;7127;49.372;8.166;2022-07-17T06:27:11;22.40;36.70
14101;DHT22;7127;49.372;8.166;2022-07-17T06:29:48;22.50;36.60
14101;DHT22;7127;49.372;8.166;2022-07-17T06:32:16;22.60;36.60
14101;DHT22;7127;49.372;8.166;2022-07-17T06:34:43;22.60;36.50
14101;DHT22;7127;49.372;8.166;2022-07-17T06:37:11;22.70;36.50
14101;DHT22;7127;49.372;8.166;2022-07-17T06:39:38;22.80;36.40
14101;DHT22;7127;49.372;8.166;2022-07-17T06:42:06;22.70;36.20
14101;DHT22;7127;49.372;8.166;2022-07-17T06:44:34;22.80;36.20
14101;DHT22;7127;49.372;8.166;2022-07-17T06:47:01;22.90;36.10
14101;DHT22;7127;49.372;8.166;2022-07-17T06:49:29;22.90;35.90
14101;DHT22;7127;49.372;8.166;2022-07-17T06:51:56;23.00;35.90
14101;DHT22;7127;49.372;8.166;2022-07-17T06:54:23;22.90;35.50
14101;DHT22;7127;49.372;8.166;2022-07-17T06:56:52;23.00;35.80
14101;DHT22;7127;49.372;8.166;2022-07-17T06:59:19;23.00;35.80
14101;DHT22;7127;49.372;8.166;2022-07-17T07:01:47;23.10;35.70
14101;DHT22;7127;49.372;8.166;2022-07-17T07:04:15;23.10;35.80
14101;DHT22;7127;49.372;8.166;2022-07-17T07:06:42;23.10;35.70
14101;DHT22;7127;49.372;8.166;2022-07-17T07:09:09;23.20;35.70
14101;DHT22;7127;49.372;8.166;2022-07-17T07:11:37;23.30;35.70
14101;DHT22;7127;49.372;8.166;2022-07-17T07:14:04;23.30;35.70
14101;DHT22;7127;49.372;8.166;2022-07-17T07:16:32;23.40;35.60
14101;DHT22;7127;49.372;8.166;2022-07-17T07:19:01;23.40;35.60
14101;DHT22;7127;49.372;8.166;2022-07-17T07:21:28;23.50;35.70
14101;DHT22;7127;49.372;8.166;2022-07-17T07:23:55;23.50;35.60
14101;DHT22;7127;49.372;8.166;2022-07-17T07:26:22;23.60;35.60
14101;DHT22;7127;49.372;8.166;2022-07-17T07:28:49;23.60;35.60
14101;DHT22;7127;49.372;8.166;2022-07-17T07:31:16;23.60;35.50
14101;DHT22;7127;49.372;8.166;2022-07-17T07:33:44;23.70;35.50
14101;DHT22;7127;49.372;8.166;2022-07-17T07:36:12;23.80;35.50
14101;DHT22;7127;49.372;8.166;2022-07-17T07:38:40;23.80;35.50
14101;DHT22;7127;49.372;8.166;2022-07-17T07:41:07;23.80;35.40
14101;DHT22;7127;49.372;8.166;2022-07-17T07:43:34;23.90;36.00
14101;DHT22;7127;49.372;8.166;2022-07-17T07:46:02;23.90;35.30
14101;DHT22;7127;49.372;8.166;2022-07-17T07:48:29;24.00;35.20
14101;DHT22;7127;49.372;8.166;2022-07-17T07:50:57;24.10;35.10
14101;DHT22;7127;49.372;8.166;2022-07-17T07:53:25;24.10;35.10
14101;DHT22;7127;49.372;8.166;2022-07-17T07:55:53;24.10;35.10
14101;DHT22;7127;49.372;8.166;2022-07-17T07:58:20;24.20;35.10
14101;DHT22;7127;49.372;8.166;2022-07-17T08:00:47;24.20;35.10
14101;DHT22;7127;49.372;8.166;2022-07-17T08:03:14;24.30;35.20
14101;DHT22;7127;49.372;8.166;2022-07-17T08:05:41;24.40;35.30
14101;DHT22;7127;49.372;8.166;2022-07-17T08:08:09;24.50;35.20
14101;DHT22;7127;49.372;8.166;2022-07-17T08:10:37;24.50;34.80
14101;DHT22;7127;49.372;8.166;2022-07-17T08:13:05;24.60;34.90
14101;DHT22;7127;49.372;8.166;2022-07-17T08:15:32;24.60;34.50
14101;DHT22;7127;49.372;8.166;2022-07-17T08:17:59;24.60;34.00
14101;DHT22;7127;49.372;8.166;2022-07-17T08:20:27;24.70;34.30
14101;DHT22;7127;49.372;8.166;2022-07-17T08:22:54;24.70;33.90
14101;DHT22;7127;49.372;8.166;2022-07-17T08:25:21;24.70;33.90
14101;DHT22;7127;49.372;8.166;2022-07-17T08:27:50;24.80;34.00
14101;DHT22;7127;49.372;8.166;2022-07-17T08:30:17;24.90;34.20
14101;DHT22;7127;49.372;8.166;2022-07-17T08:32:44;24.90;34.10
14101;DHT22;7127;49.372;8.166;2022-07-17T08:35:11;25.00;34.10
14101;DHT22;7127;49.372;8.166;2022-07-17T08:37:43;25.10;34.20
14101;DHT22;7127;49.372;8.166;2022-07-17T08:40:16;25.10;33.90
14101;DHT22;7127;49.372;8.166;2022-07-17T08:42:43;25.20;33.80
14101;DHT22;7127;49.372;8.166;2022-07-17T08:45:12;25.30;33.70
14101;DHT22;7127;49.372;8.166;2022-07-17T08:47:39;25.30;33.80
14101;DHT22;7127;49.372;8.166;2022-07-17T08:50:08;25.40;33.70
14101;DHT22;7127;49.372;8.166;2022-07-17T08:52:37;25.40;33.20
14101;DHT22;7127;49.372;8.166;2022-07-17T08:55:07;25.50;33.20
14101;DHT22;7127;49.372;8.166;2022-07-17T08:57:37;25.60;33.20
14101;DHT22;7127;49.372;8.166;2022-07-17T09:00:06;25.60;33.20
14101;DHT22;7127;49.372;8.166;2022-07-17T09:02:37;25.70;33.20
14101;DHT22;7127;49.372;8.166;2022-07-17T09:05:05;25.80;33.00
14101;DHT22;7127;49.372;8.166;2022-07-17T09:07:33;25.80;32.70
14101;DHT22;7127;49.372;8.166;2022-07-17T09:10:00;25.90;32.20
14101;DHT22;7127;49.372;8.166;2022-07-17T09:12:29;25.90;32.60
14101;DHT22;7127;49.372;8.166;2022-07-17T09:14:56;26.00;32.40
14101;DHT22;7127;49.372;8.166;2022-07-17T09:17:24;26.10;32.00
14101;DHT22;7127;49.372;8.166;2022-07-17T09:19:54;26.10;32.20
14101;DHT22;7127;49.372;8.166;2022-07-17T09:22:23;26.10;32.40
14101;DHT22;7127;49.372;8.166;2022-07-17T09:24:51;26.20;32.40
14101;DHT22;7127;49.372;8.166;2022-07-17T09:27:29;26.30;32.20
14101;DHT22;7127;49.372;8.166;2022-07-17T09:30:00;26.30;31.80
14101;DHT22;7127;49.372;8.166;2022-07-17T09:32:30;26.40;32.30
14101;DHT22;7127;49.372;8.166;2022-07-17T09:35:00;26.50;32.30
14101;DHT22;7127;49.372;8.166;2022-07-17T09:37:29;26.60;32.20
14101;DHT22;7127;49.372;8.166;2022-07-17T09:39:57;26.70;32.00
14101;DHT22;7127;49.372;8.166;2022-07-17T09:42:26;26.70;31.90
14101;DHT22;7127;49.372;8.166;2022-07-17T09:44:58;26.80;31.70
14101;DHT22;7127;49.372;8.166;2022-07-17T09:47:27;26.90;31.60
14101;DHT22;7127;49.372;8.166;2022-07-17T09:49:55;26.90;32.10
14101;DHT22;7127;49.372;8.166;2022-07-17T09:52:25;27.00;31.30
14101;DHT22;7127;49.372;8.166;2022-07-17T09:54:54;27.00;30.90
14101;DHT22;7127;49.372;8.166;2022-07-17T09:57:24;27.10;31.10
14101;DHT22;7127;49.372;8.166;2022-07-17T09:59:53;27.10;30.90
14101;DHT22;7127;49.372;8.166;2022-07-17T10:02:22;27.20;30.80
14101;DHT22;7127;49.372;8.166;2022-07-17T10:04:51;27.20;30.70
14101;DHT22;7127;49.372;8.166;2022-07-17T10:07:18;27.30;30.70
14101;DHT22;7127;49.372;8.166;2022-07-17T10:09:47;27.30;30.80
14101;DHT22;7127;49.372;8.166;2022-07-17T10:12:15;27.40;30.80
14101;DHT22;7127;49.372;8.166;2022-07-17T10:14:46;27.40;30.60
14101;DHT22;7127;49.372;8.166;2022-07-17T10:17:19;27.50;30.40
14101;DHT22;7127;49.372;8.166;2022-07-17T10:19:48;27.50;30.30
14101;DHT22;7127;49.372;8.166;2022-07-17T10:22:16;27.60;29.90
14101;DHT22;7127;49.372;8.166;2022-07-17T10:24:49;27.60;29.60
14101;DHT22;7127;49.372;8.166;2022-07-17T10:27:19;27.60;29.70
14101;DHT22;7127;49.372;8.166;2022-07-17T10:29:47;27.60;29.80
14101;DHT22;7127;49.372;8.166;2022-07-17T10:32:16;27.70;30.00
14101;DHT22;7127;49.372;8.166;2022-07-17T10:34:45;27.70;30.00
14101;DHT22;7127;49.372;8.166;2022-07-17T10:37:17;27.80;30.00
14101;DHT22;7127;49.372;8.166;2022-07-17T10:40:00;27.80;30.00
14101;DHT22;7127;49.372;8.166;2022-07-17T10:42:51;27.90;29.60
14101;DHT22;7127;49.372;8.166;2022-07-17T10:45:20;27.90;29.60
14101;DHT22;7127;49.372;8.166;2022-07-17T10:47:56;28.00;29.70
14101;DHT22;7127;49.372;8.166;2022-07-17T10:50:26;28.00;29.40
14101;DHT22;7127;49.372;8.166;2022-07-17T10:53:18;28.00;29.30
14101;DHT22;7127;49.372;8.166;2022-07-17T10:55:48;28.10;29.10
14101;DHT22;7127;49.372;8.166;2022-07-17T10:58:22;28.10;29.40
14101;DHT22;7127;49.372;8.166;2022-07-17T11:00:57;28.10;29.40
14101;DHT22;7127;49.372;8.166;2022-07-17T11:03:24;28.20;29.40
14101;DHT22;7127;49.372;8.166;2022-07-17T11:05:52;28.20;29.30
14101;DHT22;7127;49.372;8.166;2022-07-17T11:08:19;28.20;29.20
14101;DHT22;7127;49.372;8.166;2022-07-17T11:10:47;28.20;28.80
14101;DHT22;7127;49.372;8.166;2022-07-17T11:13:15;28.20;28.80
14101;DHT22;7127;49.372;8.166;2022-07-17T11:15:44;28.20;28.80
14101;DHT22;7127;49.372;8.166;2022-07-17T11:18:15;28.20;28.40
14101;DHT22;7127;49.372;8.166;2022-07-17T11:20:49;28.20;28.40
14101;DHT22;7127;49.372;8.166;2022-07-17T11:23:17;28.20;28.10
14101;DHT22;7127;49.372;8.166;2022-07-17T11:26:01;28.20;28.20
14101;DHT22;7127;49.372;8.166;2022-07-17T11:28:36;28.30;28.10
14101;DHT22;7127;49.372;8.166;2022-07-17T11:31:15;28.40;28.30
14101;DHT22;7127;49.372;8.166;2022-07-17T11:33:50;28.30;27.60
14101;DHT22;7127;49.372;8.166;2022-07-17T11:36:22;28.30;27.80
14101;DHT22;7127;49.372;8.166;2022-07-17T11:38:49;28.40;27.90
14101;DHT22;7127;49.372;8.166;2022-07-17T11:41:18;28.40;28.10
14101;DHT22;7127;49.372;8.166;2022-07-17T11:43:46;28.50;28.20
14101;DHT22;7127;49.372;8.166;2022-07-17T11:46:14;28.50;28.30
14101;DHT22;7127;49.372;8.166;2022-07-17T11:48:42;28.60;28.40
14101;DHT22;7127;49.372;8.166;2022-07-17T11:51:10;28.60;28.20
14101;DHT22;7127;49.372;8.166;2022-07-17T11:53:39;28.60;28.00
14101;DHT22;7127;49.372;8.166;2022-07-17T11:56:07;28.70;28.20
14101;DHT22;7127;49.372;8.166;2022-07-17T11:58:44;28.70;27.80
14101;DHT22;7127;49.372;8.166;2022-07-17T12:01:14;28.80;26.80
14101;DHT22;7127;49.372;8.166;2022-07-17T12:03:41;28.80;27.20
14101;DHT22;7127;49.372;8.166;2022-07-17T12:06:08;28.80;26.80
14101;DHT22;7127;49.372;8.166;2022-07-17T12:08:36;28.90;27.00
14101;DHT22;7127;49.372;8.166;2022-07-17T12:11:05;28.90;27.00
14101;DHT22;7127;49.372;8.166;2022-07-17T12:13:43;29.00;26.80
14101;DHT22;7127;49.372;8.166;2022-07-17T12:16:21;29.10;26.50
14101;DHT22;7127;49.372;8.166;2022-07-17T12:19:00;29.20;26.70
14101;DHT22;7127;49.372;8.166;2022-07-17T12:21:30;29.20;26.50
14101;DHT22;7127;49.372;8.166;2022-07-17T12:24:01;29.20;26.80
14101;DHT22;7127;49.372;8.166;2022-07-17T12:26:29;29.30;26.90
14101;DHT22;7127;49.372;8.166;2022-07-17T12:28:57;29.30;27.00
14101;DHT22;7127;49.372;8.166;2022-07-17T12:31:25;29.40;27.10
14101;DHT22;7127;49.372;8.166;2022-07-17T12:33:53;29.40;26.70
14101;DHT22;7127;49.372;8.166;2022-07-17T12:36:21;29.50;26.80
14101;DHT22;7127;49.372;8.166;2022-07-17T12:38:49;29.50;26.80
14101;DHT22;7127;49.372;8.166;2022-07-17T12:41:17;29.50;25.70
14101;DHT22;7127;49.372;8.166;2022-07-17T12:43:44;29.50;25.40
14101;DHT22;7127;49.372;8.166;2022-07-17T12:46:13;29.60;25.70
14101;DHT22;7127;49.372;8.166;2022-07-17T12:48:40;29.70;25.80
14101;DHT22;7127;49.372;8.166;2022-07-17T12:51:09;29.70;25.20
14101;DHT22;7127;49.372;8.166;2022-07-17T12:53:39;29.70;25.50
14101;DHT22;7127;49.372;8.166;2022-07-17T12:56:07;29.80;25.70
14101;DHT22;7127;49.372;8.166;2022-07-17T12:58:35;29.80;25.50
14101;DHT22;7127;49.372;8.166;2022-07-17T13:01:02;29.90;25.50
14101;DHT22;7127;49.372;8.166;2022-07-17T13:03:31;29.90;25.50
14101;DHT22;7127;49.372;8.166;2022-07-17T13:05:59;29.90;25.30
14101;DHT22;7127;49.372;8.166;2022-07-17T13:08:27;30.00;24.80
14101;DHT22;7127;49.372;8.166;2022-07-17T13:10:54;30.00;24.80
14101;DHT22;7127;49.372;8.166;2022-07-17T13:13:21;30.00;24.80
14101;DHT22;7127;49.372;8.166;2022-07-17T13:15:48;30.10;24.70
14101;DHT22;7127;49.372;8.166;2022-07-17T13:18:15;30.10;24.80
14101;DHT22;7127;49.372;8.166;2022-07-17T13:20:44;30.10;24.80
14101;DHT22;7127;49.372;8.166;2022-07-17T13:23:11;30.20;24.80
14101;DHT22;7127;49.372;8.166;2022-07-17T13:25:39;30.20;24.50
14101;DHT22;7127;49.372;8.166;2022-07-17T13:28:06;30.20;24.60
14101;DHT22;7127;49.372;8.166;2022-07-17T13:30:33;30.20;24.70
14101;DHT22;7127;49.372;8.166;2022-07-17T13:33:00;30.30;24.60
14101;DHT22;7127;49.372;8.166;2022-07-17T13:35:28;30.30;24.70
14101;DHT22;7127;49.372;8.166;2022-07-17T13:37:56;30.30;24.30
14101;DHT22;7127;49.372;8.166;2022-07-17T13:40:25;30.40;24.20
14101;DHT22;7127;49.372;8.166;2022-07-17T13:42:54;30.40;24.30
14101;DHT22;7127;49.372;8.166;2022-07-17T13:45:21;30.30;24.20
14101;DHT22;7127;49.372;8.166;2022-07-17T13:47:48;30.40;24.10
14101;DHT22;7127;49.372;8.166;2022-07-17T13:50:15;30.40;24.30
14101;DHT22;7127;49.372;8.166;2022-07-17T13:52:42;30.40;23.90
14101;DHT22;7127;49.372;8.166;2022-07-17T13:55:10;30.50;24.10
14101;DHT22;7127;49.372;8.166;2022-07-17T13:57:37;30.50;23.90
14101;DHT22;7127;49.372;8.166;2022-07-17T14:00:06;30.50;23.90
14101;DHT22;7127;49.372;8.166;2022-07-17T14:02:34;30.50;23.90
14101;DHT22;7127;49.372;8.166;2022-07-17T14:05:01;30.50;23.40
14101;DHT22;7127;49.372;8.166;2022-07-17T14:07:29;30.60;23.70
14101;DHT22;7127;49.372;8.166;2022-07-17T14:09:56;30.60;23.90
14101;DHT22;7127;49.372;8.166;2022-07-17T14:12:25;30.60;23.60
14101;DHT22;7127;49.372;8.166;2022-07-17T14:14:52;30.60;23.70
14101;DHT22;7127;49.372;8.166;2022-07-17T14:17:19;30.70;23.80
14101;DHT22;7127;49.372;8.166;2022-07-17T14:19:46;30.70;23.70
14101;DHT22;7127;49.372;8.166;2022-07-17T14:22:13;30.80;23.60
14101;DHT22;7127;49.372;8.166;2022-07-17T14:24:40;30.80;23.40
14101;DHT22;7127;49.372;8.166;2022-07-17T14:27:07;30.80;23.30
14101;DHT22;7127;49.372;8.166;2022-07-17T14:29:36;30.80;23.20
14101;DHT22;7127;49.372;8.166;2022-07-17T14:32:03;30.90;23.10
14101;DHT22;7127;49.372;8.166;2022-07-17T14:34:30;30.90;22.80
14101;DHT22;7127;49.372;8.166;2022-07-17T14:36:57;30.90;22.50
14101;DHT22;7127;49.372;8.166;2022-07-17T14:39:24;30.90;22.70
14101;DHT22;7127;49.372;8.166;2022-07-17T14:41:51;30.90;22.70
14101;DHT22;7127;49.372;8.166;2022-07-17T14:44:18;30.90;22.50
14101;DHT22;7127;49.372;8.166;2022-07-17T14:46:47;31.00;22.70
14101;DHT22;7127;49.372;8.166;2022-07-17T14:49:14;31.00;22.70
14101;DHT22;7127;49.372;8.166;2022-07-17T14:51:41;31.00;22.20
14101;DHT22;7127;49.372;8.166;2022-07-17T14:54:08;31.00;22.40
14101;DHT22;7127;49.372;8.166;2022-07-17T14:56:35;31.00;22.30
14101;DHT22;7127;49.372;8.166;2022-07-17T14:59:02;31.00;22.40
14101;DHT22;7127;49.372;8.166;2022-07-17T15:01:29;31.10;22.30
14101;DHT22;7127;49.372;8.166;2022-07-17T15:03:59;31.10;22.10
14101;DHT22;7127;49.372;8.166;2022-07-17T15:06:26;31.10;21.80
14101;DHT22;7127;49.372;8.166;2022-07-17T15:08:53;31.10;22.00
14101;DHT22;7127;49.372;8.166;2022-07-17T15:11:20;31.10;21.60
14101;DHT22;7127;49.372;8.166;2022-07-17T15:13:47;31.10;22.00
14101;DHT22;7127;49.372;8.166;2022-07-17T15:16:14;31.10;22.20
14101;DHT22;7127;49.372;8.166;2022-07-17T15:18:41;31.20;22.20
14101;DHT22;7127;49.372;8.166;2022-07-17T15:21:09;31.20;21.20
14101;DHT22;7127;49.372;8.166;2022-07-17T15:23:36;31.10;21.50
14101;DHT22;7127;49.372;8.166;2022-07-17T15:26:03;31.20;21.60
14101;DHT22;7127;49.372;8.166;2022-07-17T15:28:30;31.30;21.50
14101;DHT22;7127;49.372;8.166;2022-07-17T15:30:58;31.30;21.30
14101;DHT22;7127;49.372;8.166;2022-07-17T15:33:25;31.30;21.10
14101;DHT22;7127;49.372;8.166;2022-07-17T15:35:52;31.30;20.70
14101;DHT22;7127;49.372;8.166;2022-07-17T15:38:21;31.30;20.60
14101;DHT22;7127;49.372;8.166;2022-07-17T15:40:48;31.40;21.00
14101;DHT22;7127;49.372;8.166;2022-07-17T15:43:15;31.30;21.20
14101;DHT22;7127;49.372;8.166;2022-07-17T15:45:44;31.30;21.20
14101;DHT22;7127;49.372;8.166;2022-07-17T15:48:11;31.40;21.20
14101;DHT22;7127;49.372;8.166;2022-07-17T15:50:38;31.40;21.20
14101;DHT22;7127;49.372;8.166;2022-07-17T15:53:05;31.40;21.20
14101;DHT22;7127;49.372;8.166;2022-07-17T15:55:33;31.40;21.10